Qena, Egypt
Current Conditions -  °F | °C
As of 7:00 PM on Friday 19 Dec 2014 (Local Time) from HELX Reporting Station
Clear Clear  
Wind Chill: 70°   Ceiling: Unl
Heat Index: 70°   Visibility: 6mi
Dew Point: 57°   Wind: 2mph
Humidity: 64%   Direction: 240°WSW
Pressure: 30"   Gusts: NA
Location:  26.15°N, 32.72°E
Report Text: HELX 191700Z 24002KT CAVOK 21/14 Q1016 NOSIG
Loading
Personal Weather Stations






























Interactive Weather Map New forecast layout! Learn more

10-Day Weather Forecast

Advertisements
Track Severe Weather on mobile